Time;durP1;ratioP1;P1;durP2;ratioP2;P2;SDS_P1;SDS_P2;PMS_P1;PMS_P2;Temp;Humidity;BMP_temperature;BMP_pressure;BME280_temperature;BME280_humidity;BME280_pressure;Samples;Min_cycle;Max_cycle;Signal;HPM_P1;HPM_P2
2023/02/03 00:01:46;;;;;;;1.50;0.60;;;9.30;99.90;;;;;;4975855;28;20055;-79
2023/02/03 00:04:13;;;;;;;0.70;0.40;;;9.30;99.90;;;;;;4959389;28;20079;-79
2023/02/03 00:06:39;;;;;;;2.95;0.70;;;9.30;99.90;;;;;;4959315;28;20139;-78
2023/02/03 00:09:06;;;;;;;1.83;0.68;;;9.30;99.90;;;;;;4975020;28;20059;-78
2023/02/03 00:11:33;;;;;;;1.17;0.80;;;9.30;99.90;;;;;;4959238;28;20254;-78
2023/02/03 00:14:00;;;;;;;1.83;0.73;;;9.30;99.90;;;;;;4957060;28;20078;-78
2023/02/03 00:16:27;;;;;;;1.17;0.50;;;9.30;99.90;;;;;;4940877;28;20672;-79
2023/02/03 00:18:53;;;;;;;1.77;0.52;;;9.20;99.90;;;;;;4942871;29;20101;-78
2023/02/03 00:21:20;;;;;;;1.33;0.65;;;9.30;99.90;;;;;;4942725;29;20483;-78
2023/02/03 00:23:47;;;;;;;1.42;0.80;;;9.30;99.90;;;;;;4974722;28;20051;-78
2023/02/03 00:26:15;;;;;;;2.63;0.65;;;9.40;99.90;;;;;;4974989;28;20544;-78
2023/02/03 00:28:42;;;;;;;0.80;0.50;;;9.40;99.90;;;;;;4941171;28;20525;-79
2023/02/03 00:31:20;;;;;;;0.98;0.68;;;9.40;99.90;;;;;;4975237;28;20055;-78
2023/02/03 00:33:47;;;;;;;1.20;0.60;;;9.50;99.90;;;;;;4957760;28;20047;-78
2023/02/03 00:36:14;;;;;;;2.08;0.75;;;9.50;99.90;;;;;;4974729;28;20055;-78
2023/02/03 00:38:41;;;;;;;3.72;0.98;;;9.50;99.90;;;;;;4975450;28;20063;-77
2023/02/03 00:41:08;;;;;;;1.88;0.88;;;9.50;99.90;;;;;;4942696;28;20139;-78
2023/02/03 00:43:34;;;;;;;1.10;0.40;;;9.50;99.90;;;;;;4973286;28;20109;-78
2023/02/03 00:46:01;;;;;;;2.10;0.80;;;9.60;99.90;;;;;;4959061;28;20049;-78
2023/02/03 00:48:28;;;;;;;3.05;0.80;;;9.50;99.90;;;;;;4958776;28;20073;-78
2023/02/03 00:50:55;;;;;;;1.38;0.57;;;9.60;99.90;;;;;;4974307;28;20047;-78
2023/02/03 00:53:22;;;;;;;1.75;1.10;;;9.60;99.90;;;;;;4957602;28;20051;-78
2023/02/03 00:55:49;;;;;;;1.17;0.50;;;9.60;99.90;;;;;;4958749;28;20047;-78
2023/02/03 00:58:16;;;;;;;2.47;0.85;;;9.60;99.90;;;;;;4956416;28;20048;-78
2023/02/03 01:00:42;;;;;;;1.45;0.60;;;9.70;99.90;;;;;;4973983;28;20070;-78
2023/02/03 01:03:09;;;;;;;1.75;1.02;;;9.70;99.90;;;;;;4957806;28;20077;-78
2023/02/03 01:05:36;;;;;;;1.23;0.75;;;9.70;99.90;;;;;;4958560;28;20448;-78
2023/02/03 01:08:03;;;;;;;0.93;0.52;;;9.70;99.90;;;;;;4942745;29;20108;-78
2023/02/03 01:10:29;;;;;;;2.47;0.50;;;9.70;99.90;;;;;;4958469;28;20051;-78
2023/02/03 01:12:56;;;;;;;1.67;0.60;;;9.80;99.90;;;;;;4956982;28;20055;-78
2023/02/03 01:15:23;;;;;;;1.38;0.65;;;9.80;99.90;;;;;;4943074;28;20050;-78
2023/02/03 01:17:49;;;;;;;1.92;0.75;;;9.80;99.90;;;;;;4942064;29;20059;-78
2023/02/03 01:20:16;;;;;;;0.60;0.50;;;9.80;99.90;;;;;;4974354;28;20222;-79
2023/02/03 01:22:47;;;;;;;2.35;0.93;;;9.80;99.90;;;;;;4958110;28;20066;-77
2023/02/03 01:25:14;;;;;;;2.35;0.73;;;9.80;99.90;;;;;;4941730;28;20065;-78
2023/02/03 01:27:41;;;;;;;1.95;0.75;;;9.80;99.90;;;;;;4973420;28;20483;-78
2023/02/03 01:30:08;;;;;;;1.45;0.60;;;9.80;99.90;;;;;;4957289;28;20176;-78
2023/02/03 01:32:35;;;;;;;1.77;0.85;;;9.80;99.90;;;;;;4974022;28;20165;-78
2023/02/03 01:35:02;;;;;;;0.88;0.60;;;9.80;99.90;;;;;;4973571;28;20342;-79
2023/02/03 01:37:29;;;;;;;1.52;0.80;;;9.90;99.90;;;;;;4944177;29;20066;-78
2023/02/03 01:39:56;;;;;;;1.48;0.80;;;9.90;99.90;;;;;;4973491;28;20070;-78
2023/02/03 01:42:23;;;;;;;1.10;0.60;;;9.80;99.90;;;;;;4973331;28;20058;-79
2023/02/03 01:44:50;;;;;;;0.82;0.52;;;9.90;99.90;;;;;;4940144;28;20138;-79
2023/02/03 01:47:33;;;;;;;2.70;0.70;;;9.90;99.90;;;;;;4941604;29;20098;-78
2023/02/03 01:50:16;;;;;;;3.03;0.63;;;9.90;99.90;;;;;;4943171;29;20055;-78
2023/02/03 01:52:44;;;;;;;1.50;0.68;;;9.90;99.90;;;;;;4957344;28;20057;-79
2023/02/03 01:55:13;;;;;;;1.45;0.70;;;9.90;99.90;;;;;;4956835;28;20055;-78
2023/02/03 01:57:51;;;;;;;1.20;0.60;;;9.90;99.90;;;;;;4957410;28;20061;-78
2023/02/03 02:00:18;;;;;;;1.23;0.68;;;9.90;99.90;;;;;;4956891;28;20074;-78
2023/02/03 02:02:45;;;;;;;0.63;0.40;;;9.90;99.90;;;;;;4941303;28;20061;-79
2023/02/03 02:05:17;;;;;;;2.38;0.82;;;9.90;99.90;;;;;;4957374;28;20061;-79
2023/02/03 02:07:44;;;;;;;0.68;0.40;;;9.80;99.90;;;;;;4973579;28;20341;-79
2023/02/03 02:10:11;;;;;;;0.90;0.43;;;9.80;99.90;;;;;;4957237;28;20085;-79
2023/02/03 02:12:38;;;;;;;1.45;0.52;;;9.80;99.90;;;;;;4941249;28;20390;-79
2023/02/03 02:15:05;;;;;;;1.05;0.60;;;9.90;99.90;;;;;;4956071;28;20523;-79
2023/02/03 02:18:01;;;;;;;1.35;0.60;;;9.80;99.90;;;;;;4957007;28;20051;-79
2023/02/03 02:20:50;;;;;;;1.80;0.63;;;9.80;99.90;;;;;;4961586;28;20142;-79
2023/02/03 02:23:38;;;;;;;1.23;0.50;;;9.80;99.90;;;;;;4940368;28;20063;-79
2023/02/03 02:26:15;;;;;;;1.95;0.75;;;9.80;99.90;;;;;;4942834;29;20047;-79
2023/02/03 02:28:58;;;;;;;1.77;0.60;;;9.80;99.90;;;;;;4939452;28;20055;-79
2023/02/03 02:31:47;;;;;;;1.67;0.80;;;9.80;99.90;;;;;;4974996;28;20118;-79
2023/02/03 02:34:29;;;;;;;1.63;0.50;;;9.80;99.90;;;;;;4960548;28;20134;-78
2023/02/03 02:37:12;;;;;;;1.17;0.63;;;9.80;99.90;;;;;;4974183;28;20051;-77
2023/02/03 02:39:42;;;;;;;3.42;0.82;;;9.80;99.90;;;;;;4959982;28;20047;-78
2023/02/03 02:42:22;;;;;;;3.08;0.68;;;9.80;99.90;;;;;;4976507;28;20142;-78
2023/02/03 02:44:51;;;;;;;1.77;0.47;;;9.80;99.90;;;;;;4959868;28;20079;-78
2023/02/03 02:47:18;;;;;;;0.80;0.50;;;9.90;99.90;;;;;;4945281;29;20059;-77
2023/02/03 02:50:01;;;;;;;1.52;0.80;;;9.90;99.90;;;;;;4960589;28;20043;-78
2023/02/03 02:52:30;;;;;;;1.50;0.40;;;9.90;99.90;;;;;;4976872;28;20130;-77
2023/02/03 02:54:59;;;;;;;1.83;0.55;;;9.90;99.90;;;;;;4960525;28;20289;-78
2023/02/03 02:57:26;;;;;;;1.77;0.65;;;9.90;99.90;;;;;;4977924;28;20391;-78
2023/02/03 02:59:53;;;;;;;0.93;0.40;;;9.90;99.90;;;;;;4978864;28;20065;-78
2023/02/03 03:02:20;;;;;;;1.75;0.50;;;9.90;99.90;;;;;;4983104;28;20058;-78
2023/02/03 03:04:48;;;;;;;0.52;0.50;;;9.90;99.90;;;;;;4977363;28;20066;-77
2023/02/03 03:07:17;;;;;;;1.08;0.30;;;9.90;99.90;;;;;;4960669;28;20149;-78
2023/02/03 03:09:56;;;;;;;1.27;0.50;;;9.90;99.90;;;;;;4960529;28;20047;-77
2023/02/03 03:12:26;;;;;;;0.90;0.50;;;9.90;99.90;;;;;;4974963;28;20141;-77
2023/02/03 03:14:56;;;;;;;2.47;0.57;;;9.90;99.90;;;;;;4959242;28;20623;-78
2023/02/03 03:17:27;;;;;;;1.88;0.77;;;9.90;99.90;;;;;;4960586;28;20062;-77
2023/02/03 03:19:55;;;;;;;1.35;0.57;;;9.80;99.90;;;;;;4976084;28;20062;-78
2023/02/03 03:22:28;;;;;;;0.80;0.45;;;9.80;99.90;;;;;;4976673;28;20055;-78
2023/02/03 03:25:02;;;;;;;1.10;0.43;;;9.80;99.90;;;;;;4960072;28;20094;-77
2023/02/03 03:27:31;;;;;;;0.50;0.30;;;9.80;99.90;;;;;;4960257;28;20435;-78
2023/02/03 03:30:16;;;;;;;1.55;0.50;;;9.80;99.90;;;;;;4942869;29;20074;-78
2023/02/03 03:32:42;;;;;;;2.53;0.57;;;9.80;99.90;;;;;;4944374;28;20361;-78
2023/02/03 03:35:09;;;;;;;0.65;0.40;;;9.80;99.90;;;;;;4988836;28;20515;-78
2023/02/03 03:37:49;;;;;;;1.75;0.50;;;9.70;99.90;;;;;;4980068;28;20055;-78
2023/02/03 03:40:19;;;;;;;2.90;0.90;;;9.70;99.90;;;;;;4999050;28;20235;-78
2023/02/03 03:43:08;;;;;;;2.17;0.63;;;9.70;99.90;;;;;;4982616;28;20066;-78
2023/02/03 03:45:39;;;;;;;2.05;0.47;;;9.70;99.90;;;;;;4949451;28;20333;-77
2023/02/03 03:48:18;;;;;;;1.25;0.57;;;9.70;99.90;;;;;;4949096;29;20059;-78
2023/02/03 03:51:01;;;;;;;1.83;0.70;;;9.70;99.90;;;;;;4963851;28;20483;-78
2023/02/03 03:53:28;;;;;;;2.53;0.77;;;9.70;99.90;;;;;;4947358;29;20052;-78
2023/02/03 03:55:54;;;;;;;1.88;0.70;;;9.70;99.90;;;;;;4948014;29;20058;-78
2023/02/03 03:58:23;;;;;;;1.90;0.80;;;9.60;99.90;;;;;;4961810;28;20055;-78
2023/02/03 04:00:51;;;;;;;3.47;0.88;;;9.60;99.90;;;;;;4963200;28;20435;-78
2023/02/03 04:03:23;;;;;;;2.60;0.95;;;9.60;99.90;;;;;;4963007;28;20047;-78
2023/02/03 04:05:50;;;;;;;4.50;0.77;;;9.60;99.90;;;;;;4963798;28;20118;-78
2023/02/03 04:08:17;;;;;;;1.85;0.50;;;9.60;99.90;;;;;;4963736;28;20069;-78
2023/02/03 04:10:44;;;;;;;2.38;0.80;;;9.60;99.90;;;;;;4980839;28;20054;-77
2023/02/03 04:13:11;;;;;;;2.60;0.63;;;9.60;99.90;;;;;;4945313;29;20930;-78
2023/02/03 04:15:38;;;;;;;1.08;0.52;;;9.60;99.90;;;;;;4980050;28;20134;-78
2023/02/03 04:18:04;;;;;;;2.13;0.43;;;9.50;99.90;;;;;;4963272;28;20063;-77
2023/02/03 04:20:31;;;;;;;4.45;1.00;;;9.50;99.90;;;;;;4963428;28;20138;-77
2023/02/03 04:22:58;;;;;;;3.58;0.80;;;9.50;99.90;;;;;;4985714;28;20043;-78
2023/02/03 04:25:25;;;;;;;0.93;0.50;;;9.40;99.90;;;;;;4947413;29;20512;-78
2023/02/03 04:27:52;;;;;;;1.30;0.47;;;9.50;99.90;;;;;;4961891;28;20053;-77
2023/02/03 04:30:19;;;;;;;3.10;0.80;;;9.40;99.90;;;;;;4949201;29;20396;-78
2023/02/03 04:32:46;;;;;;;2.20;0.93;;;9.40;99.90;;;;;;4962817;28;20062;-78
2023/02/03 04:35:13;;;;;;;0.70;0.50;;;9.40;99.90;;;;;;4979106;28;20062;-78
2023/02/03 04:37:40;;;;;;;2.42;0.80;;;9.40;99.90;;;;;;4963170;28;20047;-78
2023/02/03 04:40:07;;;;;;;1.05;0.60;;;9.40;99.90;;;;;;4946764;29;20519;-77
2023/02/03 04:42:36;;;;;;;1.80;0.50;;;9.40;99.90;;;;;;4962686;28;20130;-77
2023/02/03 04:45:04;;;;;;;2.50;0.70;;;9.40;99.90;;;;;;4961403;28;20055;-77
2023/02/03 04:47:31;;;;;;;1.77;0.70;;;9.40;99.90;;;;;;4963307;28;20057;-78
2023/02/03 04:49:57;;;;;;;1.75;0.50;;;9.40;99.90;;;;;;4978709;28;20066;-77
2023/02/03 04:52:24;;;;;;;1.90;0.40;;;9.40;99.90;;;;;;4962473;28;20078;-77
2023/02/03 04:54:51;;;;;;;1.15;0.80;;;9.40;99.90;;;;;;4962842;28;20063;-77
2023/02/03 04:57:18;;;;;;;3.42;0.52;;;9.40;99.90;;;;;;4978510;28;20062;-77
2023/02/03 04:59:44;;;;;;;1.35;0.50;;;9.30;99.90;;;;;;4945090;29;20066;-77
2023/02/03 05:02:11;;;;;;;1.35;0.52;;;9.30;99.90;;;;;;4946766;28;20047;-78
2023/02/03 05:04:38;;;;;;;1.10;0.50;;;9.30;99.90;;;;;;4978865;28;20383;-79
2023/02/03 05:07:05;;;;;;;2.00;0.60;;;9.30;99.90;;;;;;4993238;28;20062;-77
2023/02/03 05:09:32;;;;;;;2.22;1.10;;;9.30;99.90;;;;;;4981826;28;20055;-78
2023/02/03 05:11:58;;;;;;;2.10;0.80;;;9.40;99.90;;;;;;4973261;28;20495;-77
2023/02/03 05:14:25;;;;;;;2.28;0.70;;;9.40;99.90;;;;;;4946722;29;20051;-77
2023/02/03 05:16:52;;;;;;;1.73;0.47;;;9.50;99.90;;;;;;4962349;28;20047;-77
2023/02/03 05:19:19;;;;;;;1.92;0.73;;;9.50;99.90;;;;;;4946322;28;20153;-77
2023/02/03 05:21:45;;;;;;;3.85;1.05;;;9.60;99.90;;;;;;4946617;28;20555;-77
2023/02/03 05:24:12;;;;;;;1.35;0.47;;;9.60;99.90;;;;;;4962270;28;20128;-78
2023/02/03 05:26:39;;;;;;;2.10;0.80;;;9.60;99.90;;;;;;4945950;29;20047;-78
2023/02/03 05:29:06;;;;;;;2.20;0.70;;;9.60;99.90;;;;;;4945003;29;20047;-77
2023/02/03 05:31:33;;;;;;;1.65;0.77;;;9.60;99.90;;;;;;4962644;28;20398;-78
2023/02/03 05:34:00;;;;;;;2.03;0.47;;;9.50;99.90;;;;;;4978093;28;20441;-78
2023/02/03 05:36:27;;;;;;;2.42;0.60;;;9.50;99.90;;;;;;4946488;29;20047;-78
2023/02/03 05:38:53;;;;;;;1.40;0.70;;;9.50;99.90;;;;;;4961872;28;20055;-78
2023/02/03 05:44:05;;;;;;;1.02;0.70;;;9.40;99.90;;;;;;4972165;28;20055;-78
2023/02/03 05:46:32;;;;;;;1.88;0.60;;;9.40;99.90;;;;;;4947157;29;20487;-78
2023/02/03 05:48:59;;;;;;;3.20;0.77;;;9.40;99.90;;;;;;4946894;29;20444;-78
2023/02/03 05:51:27;;;;;;;2.00;1.02;;;9.40;99.90;;;;;;4961422;28;20051;-78
2023/02/03 05:53:53;;;;;;;1.77;0.68;;;9.30;99.90;;;;;;4961783;28;20085;-78
2023/02/03 05:56:20;;;;;;;1.40;0.80;;;9.30;99.90;;;;;;4977968;28;20090;-78
2023/02/03 05:58:50;;;;;;;2.65;0.65;;;9.30;99.90;;;;;;4975992;28;20088;-78
2023/02/03 06:01:18;;;;;;;2.78;0.95;;;9.30;99.90;;;;;;4945414;28;20051;-78
2023/02/03 06:03:46;;;;;;;2.25;1.00;;;9.30;99.90;;;;;;4939153;28;20121;-77
2023/02/03 06:06:13;;;;;;;3.40;0.80;;;9.30;99.90;;;;;;4971605;28;20070;-78
2023/02/03 06:08:40;;;;;;;1.58;0.70;;;9.30;99.90;;;;;;4954681;28;20057;-77
2023/02/03 06:11:06;;;;;;;1.65;0.70;;;9.30;99.90;;;;;;4939292;29;20074;-78
2023/02/03 06:13:33;;;;;;;2.88;0.80;;;9.30;99.90;;;;;;4971868;28;20051;-78
2023/02/03 06:16:00;;;;;;;1.60;0.50;;;9.30;99.90;;;;;;4952515;28;20542;-77
2023/02/03 06:18:27;;;;;;;1.40;0.50;;;9.30;99.90;;;;;;4919706;29;20848;-78
2023/02/03 06:20:54;;;;;;;2.85;0.70;;;9.30;99.90;;;;;;4926816;29;20165;-78
2023/02/03 06:23:20;;;;;;;1.77;0.80;;;9.30;99.90;;;;;;4969981;28;20066;-78
2023/02/03 06:25:47;;;;;;;4.00;1.10;;;9.30;99.90;;;;;;4954294;28;20063;-77
2023/02/03 06:28:15;;;;;;;2.00;0.50;;;9.40;99.90;;;;;;4953053;28;20051;-78
2023/02/03 06:30:42;;;;;;;1.25;0.60;;;9.40;99.90;;;;;;4951171;28;20154;-78
2023/02/03 06:33:09;;;;;;;0.77;0.45;;;9.40;99.90;;;;;;4963255;28;20221;-79
2023/02/03 06:35:36;;;;;;;2.15;0.60;;;9.40;99.90;;;;;;4947618;28;20055;-78
2023/02/03 06:38:02;;;;;;;0.80;0.30;;;9.40;99.90;;;;;;4960718;28;20383;-78
2023/02/03 06:40:29;;;;;;;1.60;0.60;;;9.30;99.90;;;;;;4966372;28;20519;-78
2023/02/03 06:42:56;;;;;;;1.00;0.35;;;9.30;99.90;;;;;;4932861;28;20055;-77
2023/02/03 06:45:23;;;;;;;1.13;0.50;;;9.30;99.90;;;;;;4949437;28;20154;-77
2023/02/03 06:47:50;;;;;;;3.63;0.80;;;9.30;99.90;;;;;;4955718;28;20126;-77
2023/02/03 06:50:17;;;;;;;1.40;0.68;;;9.30;99.90;;;;;;4952251;28;20161;-77
2023/02/03 06:52:44;;;;;;;1.42;0.70;;;9.30;99.90;;;;;;4937197;28;20244;-77
2023/02/03 06:55:11;;;;;;;1.88;0.57;;;9.30;99.90;;;;;;4936953;29;20051;-77
2023/02/03 06:57:45;;;;;;;2.08;0.50;;;9.30;99.90;;;;;;4952230;28;20055;-77
2023/02/03 07:00:13;;;;;;;0.70;0.40;;;9.30;99.90;;;;;;4961134;28;20056;-77
2023/02/03 07:02:43;;;;;;;1.48;0.43;;;9.30;99.90;;;;;;4952269;28;20047;-78
2023/02/03 07:05:10;;;;;;;1.30;0.63;;;9.20;99.90;;;;;;4950008;28;20056;-77
2023/02/03 07:07:38;;;;;;;0.95;0.52;;;9.20;99.90;;;;;;4952343;28;20055;-78
2023/02/03 07:10:05;;;;;;;2.15;0.60;;;9.20;99.90;;;;;;4937498;28;20107;-78
2023/02/03 07:12:32;;;;;;;3.08;0.60;;;9.20;99.90;;;;;;4933104;29;20115;-78
2023/02/03 07:14:59;;;;;;;1.95;0.55;;;9.20;99.90;;;;;;4952360;28;20134;-78
2023/02/03 07:17:26;;;;;;;1.23;0.60;;;9.20;99.90;;;;;;4942272;28;20062;-77
2023/02/03 07:19:53;;;;;;;1.42;0.35;;;9.20;99.90;;;;;;4956087;28;20047;-78
2023/02/03 07:22:20;;;;;;;1.55;0.43;;;9.20;99.90;;;;;;4937165;28;20706;-78
2023/02/03 07:24:46;;;;;;;2.80;0.65;;;9.20;99.90;;;;;;4956875;28;20468;-79
2023/02/03 07:27:13;;;;;;;3.60;0.93;;;9.20;99.90;;;;;;4940753;29;20062;-77
2023/02/03 07:29:40;;;;;;;1.20;0.70;;;9.20;99.90;;;;;;4923039;29;20083;-78
2023/02/03 07:32:07;;;;;;;2.15;1.25;;;9.20;99.90;;;;;;4956094;28;20078;-78
2023/02/03 07:34:34;;;;;;;1.45;0.60;;;9.20;99.90;;;;;;4958744;28;20051;-88
2023/02/03 07:37:01;;;;;;;1.73;0.57;;;9.20;99.90;;;;;;4965484;28;20121;-88
2023/02/03 07:39:28;;;;;;;2.70;0.60;;;9.20;99.90;;;;;;4981439;28;20109;-87
2023/02/03 07:41:54;;;;;;;1.65;0.57;;;9.30;99.90;;;;;;4964908;28;20145;-88
2023/02/03 07:44:24;;;;;;;2.15;0.80;;;9.30;99.90;;;;;;4946294;28;20051;-85
2023/02/03 07:46:51;;;;;;;1.23;0.65;;;9.30;99.90;;;;;;4966582;28;20054;-86
2023/02/03 07:49:19;;;;;;;1.30;0.68;;;9.30;99.90;;;;;;4959263;28;20660;-85
2023/02/03 07:51:48;;;;;;;1.80;0.47;;;9.30;99.90;;;;;;4972304;28;20482;-87
2023/02/03 07:54:15;;;;;;;2.25;0.90;;;9.30;99.90;;;;;;4970805;28;20483;-86
2023/02/03 07:56:42;;;;;;;1.35;0.80;;;9.30;99.90;;;;;;4968710;28;20122;-87
2023/02/03 07:59:09;;;;;;;0.57;0.40;;;9.30;99.90;;;;;;4925148;29;20145;-87
2023/02/03 08:01:36;;;;;;;1.90;0.70;;;9.30;99.90;;;;;;4974429;28;20499;-88
2023/02/03 08:04:04;;;;;;;2.92;0.63;;;9.30;99.90;;;;;;4923289;28;20416;-87
2023/02/03 08:06:31;;;;;;;2.72;0.75;;;9.30;99.90;;;;;;4958457;28;20436;-86
2023/02/03 08:08:58;;;;;;;4.68;1.00;;;9.20;99.90;;;;;;4942804;29;20410;-86
2023/02/03 08:11:25;;;;;;;1.52;0.82;;;9.30;99.90;;;;;;4926450;29;20436;-86
2023/02/03 08:13:52;;;;;;;1.98;0.68;;;9.30;99.90;;;;;;4957189;28;20047;-87
2023/02/03 08:16:19;;;;;;;1.35;0.80;;;9.30;99.90;;;;;;4936180;28;20177;-88
2023/02/03 08:18:49;;;;;;;1.38;0.50;;;9.40;99.90;;;;;;4941094;29;20248;-87
2023/02/03 08:21:16;;;;;;;1.10;0.70;;;9.40;99.90;;;;;;4939959;29;20756;-87
2023/02/03 08:23:43;;;;;;;1.52;0.80;;;9.40;99.90;;;;;;4957252;28;20054;-86
2023/02/03 08:26:11;;;;;;;1.55;0.80;;;9.40;99.90;;;;;;4938926;28;20055;-86
2023/02/03 08:28:38;;;;;;;1.90;0.68;;;9.40;99.90;;;;;;4959382;28;20071;-88
2023/02/03 08:31:09;;;;;;;1.45;0.73;;;9.40;99.90;;;;;;4943773;28;20147;-89
2023/02/03 08:33:39;;;;;;;3.50;0.80;;;9.50;99.90;;;;;;4944455;29;20082;-87
2023/02/03 08:36:07;;;;;;;2.67;1.08;;;9.50;99.90;;;;;;4977087;28;20125;-88
2023/02/03 08:38:35;;;;;;;3.03;1.10;;;9.50;99.90;;;;;;4974783;28;20417;-88
2023/02/03 08:41:08;;;;;;;1.45;0.73;;;9.50;99.90;;;;;;4973620;28;20051;-89
2023/02/03 08:43:35;;;;;;;4.05;1.00;;;9.50;99.90;;;;;;4956954;28;20640;-88
2023/02/03 08:46:05;;;;;;;3.58;0.95;;;9.50;99.90;;;;;;4936863;29;20047;-88
2023/02/03 08:48:33;;;;;;;1.98;1.20;;;9.60;99.90;;;;;;4943390;28;20456;-89
2023/02/03 08:51:00;;;;;;;1.10;0.70;;;9.60;99.90;;;;;;4974351;28;20558;-89
2023/02/03 08:53:28;;;;;;;2.35;1.02;;;9.70;99.90;;;;;;4957051;28;20107;-88
2023/02/03 08:55:55;;;;;;;1.65;0.65;;;9.70;99.90;;;;;;4956877;28;20086;-88
2023/02/03 08:58:22;;;;;;;2.88;1.00;;;9.70;99.90;;;;;;4940402;28;20123;-88
2023/02/03 09:00:51;;;;;;;1.50;0.88;;;9.70;99.90;;;;;;4942957;29;20153;-88
2023/02/03 09:03:19;;;;;;;2.95;1.27;;;9.70;99.90;;;;;;4974213;28;20063;-88
2023/02/03 09:05:46;;;;;;;2.38;1.00;;;9.80;99.90;;;;;;4909575;29;20507;-88
2023/02/03 09:08:13;;;;;;;1.75;0.90;;;9.80;99.90;;;;;;4956512;28;20142;-88
2023/02/03 09:10:40;;;;;;;3.20;0.90;;;9.90;99.90;;;;;;4953854;28;20554;-87
2023/02/03 09:13:08;;;;;;;3.03;0.82;;;9.90;99.90;;;;;;4950926;28;20189;-88
2023/02/03 09:15:36;;;;;;;1.23;0.68;;;9.90;99.90;;;;;;4938431;28;20185;-87
2023/02/03 09:18:03;;;;;;;1.45;0.60;;;9.90;99.90;;;;;;4922674;29;20046;-88
2023/02/03 09:20:30;;;;;;;1.58;0.60;;;10.00;99.90;;;;;;4922021;29;20070;-89
2023/02/03 09:22:59;;;;;;;1.85;0.75;;;10.00;99.90;;;;;;4909006;28;20467;-88
2023/02/03 09:25:26;;;;;;;1.33;0.77;;;10.00;99.90;;;;;;4959524;28;20050;-88
2023/02/03 09:27:53;;;;;;;1.65;0.98;;;10.00;99.90;;;;;;4919850;29;20065;-87
2023/02/03 09:30:20;;;;;;;4.40;1.05;;;10.00;99.90;;;;;;4940167;28;20106;-88
2023/02/03 09:32:52;;;;;;;2.90;1.58;;;10.10;99.90;;;;;;4958561;28;20058;-88
2023/02/03 09:35:20;;;;;;;1.50;0.70;;;10.10;99.90;;;;;;4952443;28;20075;-88
2023/02/03 09:37:47;;;;;;;2.50;0.98;;;10.10;99.90;;;;;;4969794;28;20314;-87
2023/02/03 09:40:23;;;;;;;3.22;0.82;;;10.10;99.90;;;;;;4954718;28;20086;-88
2023/02/03 09:43:17;;;;;;;1.63;1.02;;;10.20;99.90;;;;;;4935626;29;20067;-87
2023/02/03 09:45:44;;;;;;;2.80;0.90;;;10.20;99.90;;;;;;4952451;28;20102;-74
2023/02/03 09:48:25;;;;;;;1.58;0.80;;;10.30;99.90;;;;;;4949871;28;20065;-74
2023/02/03 09:50:52;;;;;;;5.45;1.13;;;10.30;99.90;;;;;;4966430;28;20055;-74
2023/02/03 09:53:36;;;;;;;1.33;1.00;;;10.30;99.90;;;;;;4947501;28;20042;-74
2023/02/03 09:56:03;;;;;;;2.58;0.95;;;10.40;99.90;;;;;;4922078;28;20138;-75
2023/02/03 09:58:32;;;;;;;1.90;0.82;;;10.40;99.90;;;;;;4952270;28;20086;-75
2023/02/03 10:01:00;;;;;;;1.83;0.80;;;10.50;99.90;;;;;;4952936;28;20051;-75
2023/02/03 10:03:36;;;;;;;3.47;1.20;;;10.60;99.90;;;;;;4951065;28;20422;-75
2023/02/03 10:06:12;;;;;;;1.77;1.08;;;10.60;99.90;;;;;;4963682;28;20055;-75
2023/02/03 10:08:45;;;;;;;2.15;1.02;;;10.60;99.90;;;;;;4968546;28;20194;-75
2023/02/03 10:11:34;;;;;;;3.17;1.55;;;10.60;99.90;;;;;;4968740;28;20567;-74
2023/02/03 10:14:19;;;;;;;1.63;0.80;;;10.70;99.90;;;;;;4933772;28;20052;-74
2023/02/03 10:17:25;;;;;;;2.92;1.15;;;10.70;99.90;;;;;;4933458;29;20181;-75
2023/02/03 10:19:56;;;;;;;2.03;1.10;;;10.80;99.90;;;;;;4937076;28;20515;-75
2023/02/03 10:22:27;;;;;;;3.13;1.42;;;10.80;99.90;;;;;;4950747;28;20059;-83
2023/02/03 10:25:13;;;;;;;3.17;1.10;;;10.80;99.90;;;;;;4936977;28;20055;-76
2023/02/03 10:27:41;;;;;;;2.78;0.90;;;10.90;99.90;;;;;;4966437;28;20055;-75
2023/02/03 10:30:18;;;;;;;2.33;1.45;;;10.90;99.90;;;;;;4930759;28;20048;-76
2023/02/03 10:32:53;;;;;;;2.38;1.55;;;11.00;99.90;;;;;;4965852;28;20094;-78
2023/02/03 10:35:21;;;;;;;2.25;1.23;;;11.00;99.90;;;;;;4952612;28;20062;-78
2023/02/03 10:37:49;;;;;;;3.28;1.40;;;11.00;99.90;;;;;;4951962;28;20444;-77
2023/02/03 10:40:16;;;;;;;2.22;1.13;;;11.00;99.90;;;;;;4952506;28;20074;-78
2023/02/03 10:45:30;;;;;;;2.58;1.40;;;11.10;99.90;;;;;;4939870;28;20054;-78
2023/02/03 10:47:57;;;;;;;2.08;1.10;;;11.20;99.90;;;;;;4952324;28;20055;-78
2023/02/03 10:50:30;;;;;;;3.25;1.23;;;11.20;99.90;;;;;;4947278;28;20051;-78
2023/02/03 10:53:25;;;;;;;1.95;1.17;;;11.30;99.90;;;;;;4954714;28;20051;-78
2023/02/03 10:56:01;;;;;;;3.08;1.08;;;11.40;99.90;;;;;;4936585;28;20098;-78
2023/02/03 10:58:29;;;;;;;3.80;1.40;;;11.40;99.90;;;;;;4943865;28;20074;-78
2023/02/03 11:01:07;;;;;;;2.60;1.30;;;11.50;99.90;;;;;;4960488;28;20142;-78
2023/02/03 11:03:34;;;;;;;2.78;1.15;;;11.50;99.90;;;;;;4946513;28;20051;-78
2023/02/03 11:06:14;;;;;;;2.25;1.50;;;11.60;99.90;;;;;;4940483;28;20165;-81
2023/02/03 11:08:43;;;;;;;3.33;1.33;;;11.60;99.90;;;;;;4955409;28;20145;-77
2023/02/03 11:11:24;;;;;;;2.22;1.30;;;11.70;99.90;;;;;;4957313;28;20069;-77
2023/02/03 11:14:12;;;;;;;3.42;1.25;;;11.70;99.90;;;;;;4937306;29;20078;-79
2023/02/03 11:16:39;;;;;;;1.65;1.23;;;11.80;99.90;;;;;;4954284;28;20062;-79
2023/02/03 11:19:17;;;;;;;5.20;1.50;;;11.80;99.90;;;;;;4971645;28;20074;-79
2023/02/03 11:21:56;;;;;;;3.47;1.48;;;11.80;99.90;;;;;;4954140;28;20051;-79
2023/02/03 11:24:25;;;;;;;4.65;1.75;;;11.90;99.90;;;;;;4967999;28;20141;-78
2023/02/03 11:26:57;;;;;;;3.88;1.63;;;11.90;99.90;;;;;;4938846;28;20066;-79
2023/02/03 11:29:29;;;;;;;3.78;1.33;;;12.00;99.90;;;;;;4953729;28;20130;-79
2023/02/03 11:31:57;;;;;;;3.70;1.63;;;12.10;99.90;;;;;;4958594;28;20142;-79
2023/02/03 11:34:27;;;;;;;3.53;1.58;;;12.10;99.90;;;;;;4955512;28;20050;-79
2023/02/03 11:36:54;;;;;;;3.65;1.52;;;12.20;99.90;;;;;;4948627;28;20147;-79
2023/02/03 11:39:28;;;;;;;3.97;1.38;;;12.30;99.90;;;;;;4951145;28;20062;-79
2023/02/03 11:41:55;;;;;;;3.70;1.13;;;12.30;99.90;;;;;;4982636;28;20065;-77
2023/02/03 11:44:28;;;;;;;2.85;1.30;;;12.40;99.90;;;;;;4937548;29;20097;-79
2023/02/03 11:46:58;;;;;;;3.22;1.52;;;12.40;99.90;;;;;;4931092;29;20063;-78
2023/02/03 11:49:34;;;;;;;3.20;1.23;;;12.50;99.90;;;;;;4962022;28;20468;-77
2023/02/03 11:52:24;;;;;;;4.25;1.73;;;12.60;99.90;;;;;;4940134;29;20082;-78
2023/02/03 11:55:19;;;;;;;3.45;0.90;;;12.70;99.90;;;;;;4941837;28;20193;-78
2023/02/03 11:58:02;;;;;;;3.20;1.40;;;12.80;99.90;;;;;;4959944;28;20499;-78
2023/02/03 12:00:55;;;;;;;3.58;1.20;;;13.00;99.90;;;;;;4960187;28;20058;-78
2023/02/03 12:03:28;;;;;;;2.80;1.15;;;13.10;99.90;;;;;;4942762;28;20168;-78
2023/02/03 12:06:00;;;;;;;2.13;1.00;;;13.10;99.90;;;;;;4942496;29;20062;-78
2023/02/03 12:08:32;;;;;;;3.13;1.25;;;13.10;99.90;;;;;;4945049;28;20051;-77
2023/02/03 12:11:07;;;;;;;3.47;1.33;;;13.20;99.90;;;;;;4961661;28;20102;-77
2023/02/03 12:14:02;;;;;;;2.92;1.42;;;13.20;99.90;;;;;;4969381;28;20057;-77
2023/02/03 12:17:01;;;;;;;2.38;1.38;;;13.30;99.90;;;;;;4954453;28;20130;-79
2023/02/03 12:19:37;;;;;;;2.83;1.40;;;13.40;99.90;;;;;;4955359;28;20047;-76
2023/02/03 12:22:19;;;;;;;1.58;1.02;;;13.60;99.90;;;;;;4967916;28;20059;-79
2023/02/03 12:25:08;;;;;;;3.25;1.50;;;13.50;99.90;;;;;;4939683;29;20047;-80
2023/02/03 12:28:16;;;;;;;3.42;1.58;;;13.60;99.90;;;;;;4944251;28;20131;-77
2023/02/03 12:31:07;;;;;;;4.15;1.75;;;13.70;99.90;;;;;;4923699;28;20063;-88
2023/02/03 12:33:47;;;;;;;3.15;1.60;;;13.70;99.90;;;;;;4974722;28;20055;-80
2023/02/03 12:36:20;;;;;;;2.40;1.30;;;13.80;99.90;;;;;;4955171;28;20047;-79
2023/02/03 12:38:51;;;;;;;2.97;1.50;;;13.90;99.90;;;;;;4935740;29;20052;-79
2023/02/03 12:41:49;;;;;;;3.78;1.77;;;13.90;99.90;;;;;;4943829;28;20082;-78
2023/02/03 12:44:30;;;;;;;2.78;1.70;;;14.10;99.90;;;;;;4960908;28;20054;-79
2023/02/03 12:47:00;;;;;;;3.55;1.70;;;14.20;99.90;;;;;;4955036;28;20047;-78
2023/02/03 12:49:41;;;;;;;2.72;1.67;;;14.10;99.90;;;;;;4970911;28;20051;-78
2023/02/03 12:52:31;;;;;;;4.93;1.80;;;14.30;99.90;;;;;;4945015;28;20056;-77
2023/02/03 12:55:18;;;;;;;4.25;2.13;;;14.40;99.90;;;;;;4953970;28;20070;-78
2023/02/03 12:57:49;;;;;;;5.07;2.05;;;14.40;99.90;;;;;;4954321;28;20062;-77
2023/02/03 13:00:45;;;;;;;3.72;1.42;;;14.30;99.90;;;;;;4973975;28;20081;-75
2023/02/03 13:03:30;;;;;;;2.40;1.40;;;14.10;99.90;;;;;;4925678;29;20069;-77
2023/02/03 13:06:23;;;;;;;3.65;1.70;;;14.00;99.90;;;;;;4950354;28;20051;-77
2023/02/03 13:08:56;;;;;;;2.58;1.20;;;13.90;99.90;;;;;;4971823;28;20640;-77
2023/02/03 13:11:46;;;;;;;2.45;1.10;;;13.80;99.90;;;;;;4972740;28;20073;-77
2023/02/03 13:14:14;;;;;;;3.03;1.35;;;13.70;99.90;;;;;;4972389;28;20714;-77
2023/02/03 13:16:43;;;;;;;1.80;1.00;;;13.70;99.90;;;;;;4974659;28;20051;-77
2023/02/03 13:19:20;;;;;;;2.50;1.08;;;13.80;99.90;;;;;;4957614;28;20092;-77